KPRX/PRX METAR and TAF weather

Enter ICAO airport designator
Station Type Date Time Source
KPRX METAR 2021/03/07 08:56 UTC NOAA

KPRX 070856Z AUTO 08003KT 10SM CLR 05/M01 A3034 RMK AO2 SLP294 T00501006 51008


Station Type Date Time Source
KPRX Decoded METAR 2021/03/07 08:56 UTC NOAA

Paris / Cox Field, TX, United States (KPRX) 33-38N 095-27W
Mar 07, 2021 - 03:56 AM EST / 2021.03.07 0856 UTC
Wind: from the E (080 degrees) at 3 MPH (3 KT):0
Visibility: 10 mile(s):0
Sky conditions: clear
Temperature: 41.0 F (5.0 C)
Dew Point: 30.9 F (-0.6 C)
Relative Humidity: 67%
Pressure (altimeter): 30.34 in. Hg (1027 hPa)
Pressure tendency: 0.02 inches (0.8 hPa) higher than three hours ago
ob: KPRX 070856Z AUTO 08003KT 10SM CLR 05/M01 A3034 RMK AO2 SLP294 T00501006 51008
cycle: 9

Station Type Date Time Source
KPRX TAF UTC NOAA

Error!

Example: see airport list